sensor_id;sensor_type;location;lat;lon;timestamp;P1;durP1;ratioP1;P2;durP2;ratioP2
15035;SDS011;7615;48.574;13.474;2023-12-22T00:00:19;0.20;;;0.20;;
15035;SDS011;7615;48.574;13.474;2023-12-22T00:02:46;0.20;;;0.20;;
15035;SDS011;7615;48.574;13.474;2023-12-22T00:05:13;0.20;;;0.20;;
15035;SDS011;7615;48.574;13.474;2023-12-22T00:07:40;0.20;;;0.20;;
15035;SDS011;7615;48.574;13.474;2023-12-22T00:10:08;0.10;;;0.10;;
15035;SDS011;7615;48.574;13.474;2023-12-22T00:12:35;1.40;;;0.67;;
15035;SDS011;7615;48.574;13.474;2023-12-22T00:15:03;0.20;;;0.20;;
15035;SDS011;7615;48.574;13.474;2023-12-22T00:17:32;0.10;;;0.10;;
15035;SDS011;7615;48.574;13.474;2023-12-22T00:19:59;0.20;;;0.20;;
15035;SDS011;7615;48.574;13.474;2023-12-22T00:22:28;0.10;;;0.10;;
15035;SDS011;7615;48.574;13.474;2023-12-22T00:24:55;0.20;;;0.20;;
15035;SDS011;7615;48.574;13.474;2023-12-22T00:27:22;0.20;;;0.20;;
15035;SDS011;7615;48.574;13.474;2023-12-22T00:29:50;0.20;;;0.20;;
15035;SDS011;7615;48.574;13.474;2023-12-22T00:32:17;0.10;;;0.10;;
15035;SDS011;7615;48.574;13.474;2023-12-22T00:34:45;0.20;;;0.20;;
15035;SDS011;7615;48.574;13.474;2023-12-22T00:37:13;0.40;;;0.40;;
15035;SDS011;7615;48.574;13.474;2023-12-22T00:39:40;0.33;;;0.33;;
15035;SDS011;7615;48.574;13.474;2023-12-22T00:42:07;0.13;;;0.13;;
15035;SDS011;7615;48.574;13.474;2023-12-22T00:44:34;0.10;;;0.10;;
15035;SDS011;7615;48.574;13.474;2023-12-22T00:47:02;0.10;;;0.10;;
15035;SDS011;7615;48.574;13.474;2023-12-22T00:49:29;0.20;;;0.20;;
15035;SDS011;7615;48.574;13.474;2023-12-22T00:51:58;0.10;;;0.10;;
15035;SDS011;7615;48.574;13.474;2023-12-22T00:54:25;0.20;;;0.20;;
15035;SDS011;7615;48.574;13.474;2023-12-22T00:56:55;0.10;;;0.10;;
15035;SDS011;7615;48.574;13.474;2023-12-22T00:59:22;0.20;;;0.20;;
15035;SDS011;7615;48.574;13.474;2023-12-22T01:01:49;0.20;;;0.20;;
15035;SDS011;7615;48.574;13.474;2023-12-22T01:04:17;0.20;;;0.20;;
15035;SDS011;7615;48.574;13.474;2023-12-22T01:06:44;0.17;;;0.17;;
15035;SDS011;7615;48.574;13.474;2023-12-22T01:09:13;0.20;;;0.20;;
15035;SDS011;7615;48.574;13.474;2023-12-22T01:11:40;0.10;;;0.10;;
15035;SDS011;7615;48.574;13.474;2023-12-22T01:14:07;0.10;;;0.10;;
15035;SDS011;7615;48.574;13.474;2023-12-22T01:16:34;0.13;;;0.13;;
15035;SDS011;7615;48.574;13.474;2023-12-22T01:19:01;0.10;;;0.10;;
15035;SDS011;7615;48.574;13.474;2023-12-22T01:21:29;0.10;;;0.10;;
15035;SDS011;7615;48.574;13.474;2023-12-22T01:23:56;0.20;;;0.20;;
15035;SDS011;7615;48.574;13.474;2023-12-22T01:26:25;0.10;;;0.10;;
15035;SDS011;7615;48.574;13.474;2023-12-22T01:28:52;0.20;;;0.20;;
15035;SDS011;7615;48.574;13.474;2023-12-22T01:31:20;0.77;;;0.77;;
15035;SDS011;7615;48.574;13.474;2023-12-22T01:33:47;0.33;;;0.33;;
15035;SDS011;7615;48.574;13.474;2023-12-22T01:36:14;0.20;;;0.20;;
15035;SDS011;7615;48.574;13.474;2023-12-22T01:38:42;0.20;;;0.20;;
15035;SDS011;7615;48.574;13.474;2023-12-22T01:41:08;0.20;;;0.20;;
15035;SDS011;7615;48.574;13.474;2023-12-22T01:43:37;0.10;;;0.10;;
15035;SDS011;7615;48.574;13.474;2023-12-22T01:46:04;0.20;;;0.20;;
15035;SDS011;7615;48.574;13.474;2023-12-22T01:48:32;0.10;;;0.10;;
15035;SDS011;7615;48.574;13.474;2023-12-22T01:51:00;0.37;;;0.37;;
15035;SDS011;7615;48.574;13.474;2023-12-22T01:53:28;0.30;;;0.30;;
15035;SDS011;7615;48.574;13.474;2023-12-22T01:55:56;0.10;;;0.10;;
15035;SDS011;7615;48.574;13.474;2023-12-22T01:58:25;0.10;;;0.10;;
15035;SDS011;7615;48.574;13.474;2023-12-22T02:00:54;0.10;;;0.10;;
15035;SDS011;7615;48.574;13.474;2023-12-22T02:03:22;0.10;;;0.10;;
15035;SDS011;7615;48.574;13.474;2023-12-22T02:05:49;0.10;;;0.10;;
15035;SDS011;7615;48.574;13.474;2023-12-22T02:08:17;1.07;;;1.07;;
15035;SDS011;7615;48.574;13.474;2023-12-22T02:10:46;0.10;;;0.10;;
15035;SDS011;7615;48.574;13.474;2023-12-22T02:13:13;0.10;;;0.10;;
15035;SDS011;7615;48.574;13.474;2023-12-22T02:15:41;0.20;;;0.20;;
15035;SDS011;7615;48.574;13.474;2023-12-22T02:18:12;0.10;;;0.10;;
15035;SDS011;7615;48.574;13.474;2023-12-22T02:20:41;0.00;;;0.00;;
15035;SDS011;7615;48.574;13.474;2023-12-22T02:23:11;0.10;;;0.10;;
15035;SDS011;7615;48.574;13.474;2023-12-22T02:25:38;0.20;;;0.20;;
15035;SDS011;7615;48.574;13.474;2023-12-22T02:28:07;0.20;;;0.20;;
15035;SDS011;7615;48.574;13.474;2023-12-22T02:30:37;0.20;;;0.20;;
15035;SDS011;7615;48.574;13.474;2023-12-22T02:33:06;0.20;;;0.20;;
15035;SDS011;7615;48.574;13.474;2023-12-22T02:35:35;25.47;;;0.90;;
15035;SDS011;7615;48.574;13.474;2023-12-22T02:38:03;0.10;;;0.10;;
15035;SDS011;7615;48.574;13.474;2023-12-22T02:40:32;0.10;;;0.10;;
15035;SDS011;7615;48.574;13.474;2023-12-22T02:43:00;0.10;;;0.10;;
15035;SDS011;7615;48.574;13.474;2023-12-22T02:45:31;0.10;;;0.10;;
15035;SDS011;7615;48.574;13.474;2023-12-22T02:47:58;0.20;;;0.20;;
15035;SDS011;7615;48.574;13.474;2023-12-22T02:50:25;0.57;;;0.57;;
15035;SDS011;7615;48.574;13.474;2023-12-22T02:52:53;51.50;;;1.20;;
15035;SDS011;7615;48.574;13.474;2023-12-22T02:55:20;0.10;;;0.10;;
15035;SDS011;7615;48.574;13.474;2023-12-22T02:57:50;0.10;;;0.10;;
15035;SDS011;7615;48.574;13.474;2023-12-22T03:00:18;0.27;;;0.27;;
15035;SDS011;7615;48.574;13.474;2023-12-22T03:02:45;0.20;;;0.20;;
15035;SDS011;7615;48.574;13.474;2023-12-22T03:05:12;0.20;;;0.20;;
15035;SDS011;7615;48.574;13.474;2023-12-22T03:07:40;0.10;;;0.10;;
15035;SDS011;7615;48.574;13.474;2023-12-22T03:10:07;0.60;;;0.60;;
15035;SDS011;7615;48.574;13.474;2023-12-22T03:12:34;0.20;;;0.20;;
15035;SDS011;7615;48.574;13.474;2023-12-22T03:15:03;0.10;;;0.10;;
15035;SDS011;7615;48.574;13.474;2023-12-22T03:17:31;0.20;;;0.20;;
15035;SDS011;7615;48.574;13.474;2023-12-22T03:19:58;0.20;;;0.20;;
15035;SDS011;7615;48.574;13.474;2023-12-22T03:22:25;0.20;;;0.20;;
15035;SDS011;7615;48.574;13.474;2023-12-22T03:24:52;0.20;;;0.20;;
15035;SDS011;7615;48.574;13.474;2023-12-22T03:27:19;0.20;;;0.20;;
15035;SDS011;7615;48.574;13.474;2023-12-22T03:29:46;0.10;;;0.10;;
15035;SDS011;7615;48.574;13.474;2023-12-22T03:32:14;0.43;;;0.43;;
15035;SDS011;7615;48.574;13.474;2023-12-22T03:34:41;0.87;;;0.87;;
15035;SDS011;7615;48.574;13.474;2023-12-22T03:37:08;0.10;;;0.10;;
15035;SDS011;7615;48.574;13.474;2023-12-22T03:39:35;0.10;;;0.10;;
15035;SDS011;7615;48.574;13.474;2023-12-22T03:42:02;0.10;;;0.10;;
15035;SDS011;7615;48.574;13.474;2023-12-22T03:44:30;0.27;;;0.27;;
15035;SDS011;7615;48.574;13.474;2023-12-22T03:46:57;1.90;;;0.97;;
15035;SDS011;7615;48.574;13.474;2023-12-22T03:49:25;0.17;;;0.17;;
15035;SDS011;7615;48.574;13.474;2023-12-22T03:51:52;0.10;;;0.10;;
15035;SDS011;7615;48.574;13.474;2023-12-22T03:54:19;0.93;;;0.93;;
15035;SDS011;7615;48.574;13.474;2023-12-22T03:56:46;0.20;;;0.20;;
15035;SDS011;7615;48.574;13.474;2023-12-22T03:59:13;0.20;;;0.20;;
15035;SDS011;7615;48.574;13.474;2023-12-22T04:01:43;0.20;;;0.20;;
15035;SDS011;7615;48.574;13.474;2023-12-22T04:04:10;0.20;;;0.20;;
15035;SDS011;7615;48.574;13.474;2023-12-22T04:06:39;0.20;;;0.20;;
15035;SDS011;7615;48.574;13.474;2023-12-22T04:09:08;0.20;;;0.20;;
15035;SDS011;7615;48.574;13.474;2023-12-22T04:11:37;0.10;;;0.10;;
15035;SDS011;7615;48.574;13.474;2023-12-22T04:14:06;0.37;;;0.37;;
15035;SDS011;7615;48.574;13.474;2023-12-22T04:16:35;0.17;;;0.17;;
15035;SDS011;7615;48.574;13.474;2023-12-22T04:19:03;0.30;;;0.30;;
15035;SDS011;7615;48.574;13.474;2023-12-22T04:21:30;0.20;;;0.20;;
15035;SDS011;7615;48.574;13.474;2023-12-22T04:23:59;0.20;;;0.20;;
15035;SDS011;7615;48.574;13.474;2023-12-22T04:26:26;0.20;;;0.20;;
15035;SDS011;7615;48.574;13.474;2023-12-22T04:28:54;0.20;;;0.20;;
15035;SDS011;7615;48.574;13.474;2023-12-22T04:31:23;0.67;;;0.67;;
15035;SDS011;7615;48.574;13.474;2023-12-22T04:33:50;0.20;;;0.20;;
15035;SDS011;7615;48.574;13.474;2023-12-22T04:36:17;0.20;;;0.20;;
15035;SDS011;7615;48.574;13.474;2023-12-22T04:44:52;0.53;;;0.43;;
15035;SDS011;7615;48.574;13.474;2023-12-22T04:56:30;0.20;;;0.20;;
15035;SDS011;7615;48.574;13.474;2023-12-22T04:58:57;0.20;;;0.20;;
15035;SDS011;7615;48.574;13.474;2023-12-22T05:01:26;1.07;;;1.07;;
15035;SDS011;7615;48.574;13.474;2023-12-22T05:03:54;0.50;;;0.50;;
15035;SDS011;7615;48.574;13.474;2023-12-22T05:06:21;0.10;;;0.10;;
15035;SDS011;7615;48.574;13.474;2023-12-22T05:08:48;0.20;;;0.20;;
15035;SDS011;7615;48.574;13.474;2023-12-22T05:11:15;0.20;;;0.20;;
15035;SDS011;7615;48.574;13.474;2023-12-22T05:13:43;0.30;;;0.30;;
15035;SDS011;7615;48.574;13.474;2023-12-22T05:16:10;0.10;;;0.10;;
15035;SDS011;7615;48.574;13.474;2023-12-22T05:18:39;0.43;;;0.43;;
15035;SDS011;7615;48.574;13.474;2023-12-22T05:21:06;0.20;;;0.20;;
15035;SDS011;7615;48.574;13.474;2023-12-22T05:23:33;0.10;;;0.10;;
15035;SDS011;7615;48.574;13.474;2023-12-22T05:26:00;0.30;;;0.30;;
15035;SDS011;7615;48.574;13.474;2023-12-22T05:28:28;0.20;;;0.20;;
15035;SDS011;7615;48.574;13.474;2023-12-22T05:30:55;0.20;;;0.20;;
15035;SDS011;7615;48.574;13.474;2023-12-22T05:33:24;0.20;;;0.20;;
15035;SDS011;7615;48.574;13.474;2023-12-22T05:35:53;0.20;;;0.20;;
15035;SDS011;7615;48.574;13.474;2023-12-22T05:38:20;0.70;;;0.70;;
15035;SDS011;7615;48.574;13.474;2023-12-22T05:40:47;0.13;;;0.13;;
15035;SDS011;7615;48.574;13.474;2023-12-22T05:43:15;0.10;;;0.10;;
15035;SDS011;7615;48.574;13.474;2023-12-22T05:45:42;0.20;;;0.20;;
15035;SDS011;7615;48.574;13.474;2023-12-22T05:48:09;0.20;;;0.20;;
15035;SDS011;7615;48.574;13.474;2023-12-22T05:50:37;0.30;;;0.30;;
15035;SDS011;7615;48.574;13.474;2023-12-22T05:53:05;0.20;;;0.20;;
15035;SDS011;7615;48.574;13.474;2023-12-22T05:55:32;0.20;;;0.20;;
15035;SDS011;7615;48.574;13.474;2023-12-22T05:57:59;0.20;;;0.20;;
15035;SDS011;7615;48.574;13.474;2023-12-22T06:00:27;0.20;;;0.20;;
15035;SDS011;7615;48.574;13.474;2023-12-22T06:02:53;0.20;;;0.20;;
15035;SDS011;7615;48.574;13.474;2023-12-22T06:05:21;0.20;;;0.20;;
15035;SDS011;7615;48.574;13.474;2023-12-22T06:07:48;0.20;;;0.20;;
15035;SDS011;7615;48.574;13.474;2023-12-22T06:10:17;0.20;;;0.20;;
15035;SDS011;7615;48.574;13.474;2023-12-22T06:12:44;0.20;;;0.20;;
15035;SDS011;7615;48.574;13.474;2023-12-22T06:15:11;0.20;;;0.20;;
15035;SDS011;7615;48.574;13.474;2023-12-22T06:17:38;0.20;;;0.20;;
15035;SDS011;7615;48.574;13.474;2023-12-22T06:20:06;0.20;;;0.20;;
15035;SDS011;7615;48.574;13.474;2023-12-22T06:22:33;0.43;;;0.43;;
15035;SDS011;7615;48.574;13.474;2023-12-22T06:25:00;0.20;;;0.20;;
15035;SDS011;7615;48.574;13.474;2023-12-22T06:27:33;0.20;;;0.20;;
15035;SDS011;7615;48.574;13.474;2023-12-22T06:32:32;0.10;;;0.10;;
15035;SDS011;7615;48.574;13.474;2023-12-22T06:35:00;0.20;;;0.20;;
15035;SDS011;7615;48.574;13.474;2023-12-22T06:37:27;0.20;;;0.20;;
15035;SDS011;7615;48.574;13.474;2023-12-22T06:39:54;0.13;;;0.13;;
15035;SDS011;7615;48.574;13.474;2023-12-22T06:42:21;0.20;;;0.20;;
15035;SDS011;7615;48.574;13.474;2023-12-22T06:44:49;0.10;;;0.10;;
15035;SDS011;7615;48.574;13.474;2023-12-22T06:47:16;0.10;;;0.10;;
15035;SDS011;7615;48.574;13.474;2023-12-22T06:49:43;0.20;;;0.20;;
15035;SDS011;7615;48.574;13.474;2023-12-22T06:52:11;0.20;;;0.20;;
15035;SDS011;7615;48.574;13.474;2023-12-22T06:54:38;0.20;;;0.20;;
15035;SDS011;7615;48.574;13.474;2023-12-22T06:57:14;0.20;;;0.20;;
15035;SDS011;7615;48.574;13.474;2023-12-22T06:59:41;0.17;;;0.17;;
15035;SDS011;7615;48.574;13.474;2023-12-22T07:02:10;0.30;;;0.30;;
15035;SDS011;7615;48.574;13.474;2023-12-22T07:07:31;0.10;;;0.10;;
15035;SDS011;7615;48.574;13.474;2023-12-22T07:09:58;0.30;;;0.30;;
15035;SDS011;7615;48.574;13.474;2023-12-22T07:12:25;0.20;;;0.20;;
15035;SDS011;7615;48.574;13.474;2023-12-22T07:14:52;0.30;;;0.30;;
15035;SDS011;7615;48.574;13.474;2023-12-22T07:17:20;0.20;;;0.20;;
15035;SDS011;7615;48.574;13.474;2023-12-22T07:19:48;0.10;;;0.10;;
15035;SDS011;7615;48.574;13.474;2023-12-22T07:22:17;0.20;;;0.20;;
15035;SDS011;7615;48.574;13.474;2023-12-22T07:24:44;1.20;;;0.27;;
15035;SDS011;7615;48.574;13.474;2023-12-22T07:27:11;0.20;;;0.20;;
15035;SDS011;7615;48.574;13.474;2023-12-22T07:29:39;0.20;;;0.20;;
15035;SDS011;7615;48.574;13.474;2023-12-22T07:32:06;0.20;;;0.20;;
15035;SDS011;7615;48.574;13.474;2023-12-22T07:34:35;0.20;;;0.20;;
15035;SDS011;7615;48.574;13.474;2023-12-22T07:37:02;0.40;;;0.40;;
15035;SDS011;7615;48.574;13.474;2023-12-22T07:39:32;0.20;;;0.20;;
15035;SDS011;7615;48.574;13.474;2023-12-22T07:41:59;0.30;;;0.30;;
15035;SDS011;7615;48.574;13.474;2023-12-22T07:44:26;0.10;;;0.10;;
15035;SDS011;7615;48.574;13.474;2023-12-22T07:46:56;0.10;;;0.10;;
15035;SDS011;7615;48.574;13.474;2023-12-22T07:49:24;0.40;;;0.40;;
15035;SDS011;7615;48.574;13.474;2023-12-22T07:51:53;0.20;;;0.20;;
15035;SDS011;7615;48.574;13.474;2023-12-22T07:54:20;0.20;;;0.20;;
15035;SDS011;7615;48.574;13.474;2023-12-22T07:56:48;0.10;;;0.10;;
15035;SDS011;7615;48.574;13.474;2023-12-22T07:59:17;0.20;;;0.20;;
15035;SDS011;7615;48.574;13.474;2023-12-22T08:01:47;0.20;;;0.20;;
15035;SDS011;7615;48.574;13.474;2023-12-22T08:04:14;0.20;;;0.20;;
15035;SDS011;7615;48.574;13.474;2023-12-22T08:06:41;0.20;;;0.20;;
15035;SDS011;7615;48.574;13.474;2023-12-22T08:09:10;0.20;;;0.20;;
15035;SDS011;7615;48.574;13.474;2023-12-22T08:11:37;0.20;;;0.20;;
15035;SDS011;7615;48.574;13.474;2023-12-22T08:14:04;0.20;;;0.20;;
15035;SDS011;7615;48.574;13.474;2023-12-22T08:16:31;0.30;;;0.30;;
15035;SDS011;7615;48.574;13.474;2023-12-22T08:18:58;0.20;;;0.20;;
15035;SDS011;7615;48.574;13.474;2023-12-22T08:21:25;0.20;;;0.20;;
15035;SDS011;7615;48.574;13.474;2023-12-22T08:23:53;0.10;;;0.10;;
15035;SDS011;7615;48.574;13.474;2023-12-22T08:26:21;0.70;;;0.70;;
15035;SDS011;7615;48.574;13.474;2023-12-22T08:28:49;0.20;;;0.20;;
15035;SDS011;7615;48.574;13.474;2023-12-22T08:31:16;0.20;;;0.20;;
15035;SDS011;7615;48.574;13.474;2023-12-22T08:33:45;0.17;;;0.17;;
15035;SDS011;7615;48.574;13.474;2023-12-22T08:36:21;0.20;;;0.20;;
15035;SDS011;7615;48.574;13.474;2023-12-22T08:38:48;0.10;;;0.10;;
15035;SDS011;7615;48.574;13.474;2023-12-22T08:41:16;0.20;;;0.20;;
15035;SDS011;7615;48.574;13.474;2023-12-22T08:43:45;0.10;;;0.10;;
15035;SDS011;7615;48.574;13.474;2023-12-22T08:46:12;0.67;;;0.67;;
15035;SDS011;7615;48.574;13.474;2023-12-22T08:48:40;0.20;;;0.20;;
15035;SDS011;7615;48.574;13.474;2023-12-22T08:51:08;1.47;;;0.80;;
15035;SDS011;7615;48.574;13.474;2023-12-22T08:53:35;0.70;;;0.70;;
15035;SDS011;7615;48.574;13.474;2023-12-22T08:56:03;1.90;;;0.80;;
15035;SDS011;7615;48.574;13.474;2023-12-22T08:58:32;0.70;;;0.70;;
15035;SDS011;7615;48.574;13.474;2023-12-22T09:01:02;1.97;;;0.60;;
15035;SDS011;7615;48.574;13.474;2023-12-22T09:03:33;1.17;;;1.00;;
15035;SDS011;7615;48.574;13.474;2023-12-22T09:06:08;1.80;;;1.10;;
15035;SDS011;7615;48.574;13.474;2023-12-22T09:08:38;2.70;;;1.00;;
15035;SDS011;7615;48.574;13.474;2023-12-22T09:11:05;2.03;;;1.10;;
15035;SDS011;7615;48.574;13.474;2023-12-22T09:13:35;1.70;;;0.90;;
15035;SDS011;7615;48.574;13.474;2023-12-22T09:16:04;1.87;;;1.00;;
15035;SDS011;7615;48.574;13.474;2023-12-22T09:18:31;2.73;;;1.13;;
15035;SDS011;7615;48.574;13.474;2023-12-22T09:21:02;4.27;;;1.30;;
15035;SDS011;7615;48.574;13.474;2023-12-22T09:23:29;4.00;;;1.57;;
15035;SDS011;7615;48.574;13.474;2023-12-22T09:25:58;2.77;;;1.50;;
15035;SDS011;7615;48.574;13.474;2023-12-22T09:28:25;3.70;;;1.70;;
15035;SDS011;7615;48.574;13.474;2023-12-22T09:30:54;3.40;;;1.43;;
15035;SDS011;7615;48.574;13.474;2023-12-22T09:33:22;3.87;;;1.60;;
15035;SDS011;7615;48.574;13.474;2023-12-22T09:35:50;2.53;;;1.10;;
15035;SDS011;7615;48.574;13.474;2023-12-22T09:38:17;1.67;;;1.30;;
15035;SDS011;7615;48.574;13.474;2023-12-22T09:40:46;1.97;;;1.23;;
15035;SDS011;7615;48.574;13.474;2023-12-22T09:43:14;1.23;;;1.10;;
15035;SDS011;7615;48.574;13.474;2023-12-22T09:45:43;1.13;;;0.87;;
15035;SDS011;7615;48.574;13.474;2023-12-22T09:48:11;2.63;;;1.20;;
15035;SDS011;7615;48.574;13.474;2023-12-22T09:50:44;1.90;;;1.43;;
15035;SDS011;7615;48.574;13.474;2023-12-22T09:53:12;1.83;;;1.20;;
15035;SDS011;7615;48.574;13.474;2023-12-22T09:55:40;3.10;;;1.50;;
15035;SDS011;7615;48.574;13.474;2023-12-22T09:58:08;6.57;;;2.50;;
15035;SDS011;7615;48.574;13.474;2023-12-22T10:00:36;2.73;;;1.70;;
15035;SDS011;7615;48.574;13.474;2023-12-22T10:03:04;2.97;;;1.60;;
15035;SDS011;7615;48.574;13.474;2023-12-22T10:05:33;5.00;;;3.70;;
15035;SDS011;7615;48.574;13.474;2023-12-22T10:08:02;4.20;;;2.57;;
15035;SDS011;7615;48.574;13.474;2023-12-22T10:10:30;10.07;;;6.17;;
15035;SDS011;7615;48.574;13.474;2023-12-22T10:12:58;6.73;;;2.60;;
15035;SDS011;7615;48.574;13.474;2023-12-22T10:15:29;4.43;;;1.80;;
15035;SDS011;7615;48.574;13.474;2023-12-22T10:17:56;4.97;;;1.50;;
15035;SDS011;7615;48.574;13.474;2023-12-22T10:20:24;3.17;;;1.43;;
15035;SDS011;7615;48.574;13.474;2023-12-22T10:22:51;3.93;;;1.60;;
15035;SDS011;7615;48.574;13.474;2023-12-22T10:25:22;3.60;;;1.17;;
15035;SDS011;7615;48.574;13.474;2023-12-22T10:27:54;5.27;;;1.53;;
15035;SDS011;7615;48.574;13.474;2023-12-22T10:30:22;3.53;;;1.10;;
15035;SDS011;7615;48.574;13.474;2023-12-22T10:32:49;2.00;;;1.03;;
15035;SDS011;7615;48.574;13.474;2023-12-22T10:35:17;4.37;;;1.23;;
15035;SDS011;7615;48.574;13.474;2023-12-22T10:37:45;0.20;;;0.20;;
15035;SDS011;7615;48.574;13.474;2023-12-22T10:40:17;0.20;;;0.20;;
15035;SDS011;7615;48.574;13.474;2023-12-22T10:42:46;0.10;;;0.10;;
15035;SDS011;7615;48.574;13.474;2023-12-22T10:45:46;0.83;;;0.83;;
15035;SDS011;7615;48.574;13.474;2023-12-22T10:48:42;0.20;;;0.20;;
15035;SDS011;7615;48.574;13.474;2023-12-22T10:51:10;0.20;;;0.20;;
15035;SDS011;7615;48.574;13.474;2023-12-22T10:53:40;0.20;;;0.20;;
15035;SDS011;7615;48.574;13.474;2023-12-22T10:56:07;0.20;;;0.20;;
15035;SDS011;7615;48.574;13.474;2023-12-22T10:58:36;0.20;;;0.20;;
15035;SDS011;7615;48.574;13.474;2023-12-22T11:01:04;0.20;;;0.20;;
15035;SDS011;7615;48.574;13.474;2023-12-22T11:03:32;0.20;;;0.20;;
15035;SDS011;7615;48.574;13.474;2023-12-22T11:06:01;0.20;;;0.20;;
15035;SDS011;7615;48.574;13.474;2023-12-22T11:08:31;0.13;;;0.13;;
15035;SDS011;7615;48.574;13.474;2023-12-22T11:10:59;0.17;;;0.17;;
15035;SDS011;7615;48.574;13.474;2023-12-22T11:13:29;0.20;;;0.20;;
15035;SDS011;7615;48.574;13.474;2023-12-22T11:15:59;0.30;;;0.30;;
15035;SDS011;7615;48.574;13.474;2023-12-22T11:18:32;0.20;;;0.20;;
15035;SDS011;7615;48.574;13.474;2023-12-22T11:21:01;0.20;;;0.20;;
15035;SDS011;7615;48.574;13.474;2023-12-22T11:23:31;0.20;;;0.20;;
15035;SDS011;7615;48.574;13.474;2023-12-22T11:26:02;0.10;;;0.10;;
15035;SDS011;7615;48.574;13.474;2023-12-22T11:28:30;0.10;;;0.10;;
15035;SDS011;7615;48.574;13.474;2023-12-22T11:30:59;0.20;;;0.20;;
15035;SDS011;7615;48.574;13.474;2023-12-22T11:33:28;0.27;;;0.27;;
15035;SDS011;7615;48.574;13.474;2023-12-22T11:35:56;3.10;;;0.73;;
15035;SDS011;7615;48.574;13.474;2023-12-22T11:38:23;0.10;;;0.10;;
15035;SDS011;7615;48.574;13.474;2023-12-22T11:40:50;1.20;;;0.60;;
15035;SDS011;7615;48.574;13.474;2023-12-22T11:43:19;0.20;;;0.20;;
15035;SDS011;7615;48.574;13.474;2023-12-22T11:45:48;0.10;;;0.10;;
15035;SDS011;7615;48.574;13.474;2023-12-22T11:48:18;0.20;;;0.20;;
15035;SDS011;7615;48.574;13.474;2023-12-22T11:50:46;0.20;;;0.20;;
15035;SDS011;7615;48.574;13.474;2023-12-22T11:53:17;3.50;;;2.63;;
15035;SDS011;7615;48.574;13.474;2023-12-22T11:56:04;1.60;;;0.73;;
15035;SDS011;7615;48.574;13.474;2023-12-22T11:58:33;0.20;;;0.20;;
15035;SDS011;7615;48.574;13.474;2023-12-22T12:01:01;0.20;;;0.20;;
15035;SDS011;7615;48.574;13.474;2023-12-22T12:03:31;0.43;;;0.43;;
15035;SDS011;7615;48.574;13.474;2023-12-22T12:06:13;0.20;;;0.20;;
15035;SDS011;7615;48.574;13.474;2023-12-22T12:08:41;0.27;;;0.27;;
15035;SDS011;7615;48.574;13.474;2023-12-22T12:11:10;0.10;;;0.10;;
15035;SDS011;7615;48.574;13.474;2023-12-22T12:13:41;0.10;;;0.10;;
15035;SDS011;7615;48.574;13.474;2023-12-22T12:16:10;1.03;;;0.97;;
15035;SDS011;7615;48.574;13.474;2023-12-22T12:18:39;0.10;;;0.10;;
15035;SDS011;7615;48.574;13.474;2023-12-22T12:21:08;0.10;;;0.10;;
15035;SDS011;7615;48.574;13.474;2023-12-22T12:23:35;0.10;;;0.10;;
15035;SDS011;7615;48.574;13.474;2023-12-22T12:26:05;0.37;;;0.37;;
15035;SDS011;7615;48.574;13.474;2023-12-22T12:28:34;0.20;;;0.20;;
15035;SDS011;7615;48.574;13.474;2023-12-22T12:31:03;0.20;;;0.20;;
15035;SDS011;7615;48.574;13.474;2023-12-22T12:33:31;0.20;;;0.20;;
15035;SDS011;7615;48.574;13.474;2023-12-22T12:42:11;0.20;;;0.20;;
15035;SDS011;7615;48.574;13.474;2023-12-22T12:44:41;0.13;;;0.13;;
15035;SDS011;7615;48.574;13.474;2023-12-22T12:47:19;0.20;;;0.20;;
15035;SDS011;7615;48.574;13.474;2023-12-22T12:49:46;0.20;;;0.20;;
15035;SDS011;7615;48.574;13.474;2023-12-22T12:52:14;1.03;;;1.03;;
15035;SDS011;7615;48.574;13.474;2023-12-22T12:54:41;0.20;;;0.20;;
15035;SDS011;7615;48.574;13.474;2023-12-22T12:57:17;0.40;;;0.40;;
15035;SDS011;7615;48.574;13.474;2023-12-22T12:59:45;0.20;;;0.20;;
15035;SDS011;7615;48.574;13.474;2023-12-22T13:08:27;0.20;;;0.20;;
15035;SDS011;7615;48.574;13.474;2023-12-22T13:10:59;0.20;;;0.20;;
15035;SDS011;7615;48.574;13.474;2023-12-22T13:13:28;0.20;;;0.20;;
15035;SDS011;7615;48.574;13.474;2023-12-22T13:15:55;0.20;;;0.20;;
15035;SDS011;7615;48.574;13.474;2023-12-22T13:18:23;0.23;;;0.23;;
15035;SDS011;7615;48.574;13.474;2023-12-22T13:20:54;0.20;;;0.20;;
15035;SDS011;7615;48.574;13.474;2023-12-22T13:23:21;0.23;;;0.23;;
15035;SDS011;7615;48.574;13.474;2023-12-22T13:25:48;0.20;;;0.20;;
15035;SDS011;7615;48.574;13.474;2023-12-22T13:28:24;0.30;;;0.30;;
15035;SDS011;7615;48.574;13.474;2023-12-22T13:30:53;0.20;;;0.20;;
15035;SDS011;7615;48.574;13.474;2023-12-22T13:33:23;0.10;;;0.10;;
15035;SDS011;7615;48.574;13.474;2023-12-22T13:35:55;0.20;;;0.20;;
15035;SDS011;7615;48.574;13.474;2023-12-22T13:38:23;0.20;;;0.20;;
15035;SDS011;7615;48.574;13.474;2023-12-22T13:40:50;0.10;;;0.10;;
15035;SDS011;7615;48.574;13.474;2023-12-22T13:43:18;0.20;;;0.20;;
15035;SDS011;7615;48.574;13.474;2023-12-22T13:45:48;0.40;;;0.40;;
15035;SDS011;7615;48.574;13.474;2023-12-22T13:48:18;0.23;;;0.23;;
15035;SDS011;7615;48.574;13.474;2023-12-22T13:50:54;0.20;;;0.20;;
15035;SDS011;7615;48.574;13.474;2023-12-22T13:53:22;0.73;;;0.40;;
15035;SDS011;7615;48.574;13.474;2023-12-22T13:55:54;0.63;;;0.63;;
15035;SDS011;7615;48.574;13.474;2023-12-22T13:58:21;0.20;;;0.20;;
15035;SDS011;7615;48.574;13.474;2023-12-22T14:00:50;0.10;;;0.10;;
15035;SDS011;7615;48.574;13.474;2023-12-22T14:03:19;0.20;;;0.20;;
15035;SDS011;7615;48.574;13.474;2023-12-22T14:05:47;0.20;;;0.20;;
15035;SDS011;7615;48.574;13.474;2023-12-22T14:08:15;0.33;;;0.33;;
15035;SDS011;7615;48.574;13.474;2023-12-22T14:10:47;0.83;;;0.83;;
15035;SDS011;7615;48.574;13.474;2023-12-22T14:13:14;0.13;;;0.13;;
15035;SDS011;7615;48.574;13.474;2023-12-22T14:15:41;0.13;;;0.13;;
15035;SDS011;7615;48.574;13.474;2023-12-22T14:18:14;0.13;;;0.13;;
15035;SDS011;7615;48.574;13.474;2023-12-22T14:20:43;0.10;;;0.10;;
15035;SDS011;7615;48.574;13.474;2023-12-22T14:23:11;0.20;;;0.20;;
15035;SDS011;7615;48.574;13.474;2023-12-22T14:25:41;0.13;;;0.13;;
15035;SDS011;7615;48.574;13.474;2023-12-22T14:28:08;0.10;;;0.10;;
15035;SDS011;7615;48.574;13.474;2023-12-22T14:30:36;0.13;;;0.13;;
15035;SDS011;7615;48.574;13.474;2023-12-22T14:33:04;0.20;;;0.20;;
15035;SDS011;7615;48.574;13.474;2023-12-22T14:35:31;0.10;;;0.10;;
15035;SDS011;7615;48.574;13.474;2023-12-22T14:38:00;0.10;;;0.10;;
15035;SDS011;7615;48.574;13.474;2023-12-22T14:40:27;0.57;;;0.57;;
15035;SDS011;7615;48.574;13.474;2023-12-22T14:42:55;0.60;;;0.60;;
15035;SDS011;7615;48.574;13.474;2023-12-22T14:45:24;0.10;;;0.10;;
15035;SDS011;7615;48.574;13.474;2023-12-22T14:47:51;0.20;;;0.20;;
15035;SDS011;7615;48.574;13.474;2023-12-22T14:50:18;0.63;;;0.63;;
15035;SDS011;7615;48.574;13.474;2023-12-22T14:52:46;0.77;;;0.77;;
15035;SDS011;7615;48.574;13.474;2023-12-22T14:55:15;0.10;;;0.10;;
15035;SDS011;7615;48.574;13.474;2023-12-22T14:57:43;0.20;;;0.20;;
15035;SDS011;7615;48.574;13.474;2023-12-22T15:00:11;0.10;;;0.10;;
15035;SDS011;7615;48.574;13.474;2023-12-22T15:02:38;0.20;;;0.20;;
15035;SDS011;7615;48.574;13.474;2023-12-22T15:05:06;0.10;;;0.10;;
15035;SDS011;7615;48.574;13.474;2023-12-22T15:07:34;0.27;;;0.27;;
15035;SDS011;7615;48.574;13.474;2023-12-22T15:10:01;0.30;;;0.30;;
15035;SDS011;7615;48.574;13.474;2023-12-22T15:12:32;1.50;;;1.40;;
15035;SDS011;7615;48.574;13.474;2023-12-22T15:15:01;0.10;;;0.10;;
15035;SDS011;7615;48.574;13.474;2023-12-22T15:17:29;0.10;;;0.10;;
15035;SDS011;7615;48.574;13.474;2023-12-22T15:19:57;0.20;;;0.20;;
15035;SDS011;7615;48.574;13.474;2023-12-22T15:22:24;0.33;;;0.33;;
15035;SDS011;7615;48.574;13.474;2023-12-22T15:24:51;0.10;;;0.10;;
15035;SDS011;7615;48.574;13.474;2023-12-22T15:27:19;0.20;;;0.20;;